createdAt,value
2022-12-19T15:51:14.979Z,55.75
2022-12-19T15:52:14.819Z,56.07
2022-12-19T15:53:22.324Z,55.43
2022-12-19T15:55:16.780Z,56.56
2022-12-19T15:56:14.748Z,53.66
2022-12-19T15:57:14.777Z,54.46
2022-12-19T15:58:14.784Z,53.66
2022-12-19T15:59:14.756Z,54.46
2022-12-19T16:00:14.734Z,54.62
2022-12-19T16:01:14.806Z,54.79
2022-12-19T16:02:14.856Z,54.62
2022-12-19T16:03:23.697Z,53.17
2022-12-19T16:04:16.873Z,56.72
2022-12-19T16:05:14.781Z,54.79
2022-12-19T16:06:14.716Z,55.27
2022-12-19T16:07:14.711Z,56.56
2022-12-19T16:08:14.730Z,57.85
2022-12-19T16:09:14.847Z,55.43
2022-12-19T16:10:14.661Z,54.30
2022-12-19T16:11:14.686Z,54.95
2022-12-19T16:12:14.709Z,52.21
2022-12-19T16:13:14.661Z,53.33
2022-12-19T16:14:14.662Z,54.62
2022-12-19T16:15:14.650Z,54.95
2022-12-19T16:16:16.049Z,55.11
2022-12-19T16:17:15.625Z,57.04
2022-12-19T16:18:14.690Z,54.30
2022-12-19T16:19:14.649Z,55.59
2022-12-19T16:20:14.592Z,54.30
2022-12-19T16:21:14.666Z,53.50
2022-12-19T16:22:14.633Z,56.56
2022-12-19T16:23:14.681Z,54.14
2022-12-19T16:24:14.583Z,53.82
2022-12-19T16:25:14.590Z,54.79
2022-12-19T16:26:14.579Z,53.66
2022-12-19T16:27:14.579Z,54.30
2022-12-19T16:28:14.571Z,56.07
2022-12-19T16:29:14.585Z,55.43
2022-12-19T16:30:18.694Z,53.82
2022-12-19T16:31:15.614Z,54.46
2022-12-19T16:32:14.520Z,54.62
2022-12-19T16:33:14.529Z,55.75
2022-12-19T16:34:14.568Z,55.27
2022-12-19T16:35:17.516Z,56.40
2022-12-19T16:36:15.544Z,54.62
2022-12-19T16:37:14.514Z,54.14
2022-12-19T16:38:14.537Z,53.01
2022-12-19T16:39:14.573Z,53.66
2022-12-19T16:40:14.868Z,52.85
2022-12-19T16:41:14.744Z,54.30
2022-12-19T16:42:14.638Z,54.46
2022-12-19T16:43:14.563Z,55.91
2022-12-19T16:44:19.099Z,54.95
2022-12-19T16:45:16.467Z,54.14
2022-12-19T16:46:14.723Z,56.56
2022-12-19T16:47:14.549Z,54.79
2022-12-19T16:48:14.412Z,54.79
2022-12-19T16:49:14.454Z,53.33
2022-12-19T16:50:14.391Z,51.72
2022-12-19T16:51:14.384Z,54.30
2022-12-19T16:52:14.394Z,54.30
2022-12-19T16:53:15.076Z,53.66
2022-12-19T16:54:14.402Z,53.82
2022-12-19T16:55:14.376Z,51.40
2022-12-19T16:56:14.356Z,51.72
2022-12-19T16:57:14.807Z,54.46
2022-12-19T16:58:14.692Z,54.46
2022-12-19T16:59:14.512Z,52.05
2022-12-19T17:00:14.601Z,54.14
2022-12-19T17:01:14.744Z,53.01
2022-12-19T17:02:14.826Z,55.75
2022-12-19T17:03:14.529Z,53.50
2022-12-19T17:04:14.329Z,52.85
2022-12-19T17:05:14.821Z,52.37
2022-12-19T17:06:14.304Z,54.46
2022-12-19T17:07:14.311Z,53.98
2022-12-19T17:08:14.277Z,53.82
2022-12-19T17:09:14.282Z,52.21
2022-12-19T17:10:14.302Z,53.66
2022-12-19T17:11:14.258Z,53.82
2022-12-19T17:12:14.254Z,54.46
2022-12-19T17:13:14.439Z,54.62
2022-12-19T17:14:14.240Z,52.69
2022-12-19T17:15:14.232Z,50.76
2022-12-19T17:16:14.404Z,53.98
2022-12-19T17:17:14.218Z,52.69
2022-12-19T17:18:14.207Z,53.98
2022-12-19T17:19:14.236Z,52.53
2022-12-19T17:20:14.185Z,53.82
2022-12-19T17:21:14.209Z,53.66
2022-12-19T17:22:14.202Z,52.53
2022-12-19T17:23:14.185Z,52.05
2022-12-19T17:24:14.186Z,53.33
2022-12-19T17:25:14.208Z,51.88
2022-12-19T17:26:17.866Z,53.33
2022-12-19T17:27:15.178Z,53.82
2022-12-19T17:28:14.218Z,55.75
2022-12-19T17:29:14.220Z,53.50
2022-12-19T17:30:14.175Z,52.21
2022-12-19T17:31:14.223Z,55.11
2022-12-19T17:32:18.362Z,53.01
2022-12-19T17:33:16.109Z,54.30
2022-12-19T17:34:14.107Z,53.17
2022-12-19T17:35:14.073Z,52.21
2022-12-19T17:36:15.404Z,50.11
2022-12-19T17:37:14.079Z,52.21
2022-12-19T17:38:14.080Z,53.66
2022-12-19T17:39:14.114Z,51.72
2022-12-19T17:40:14.072Z,53.17
2022-12-19T17:41:14.061Z,54.95
2022-12-19T17:42:14.056Z,50.92
2022-12-19T17:43:14.022Z,53.17
2022-12-19T17:44:14.058Z,50.76
2022-12-19T17:45:14.022Z,51.72
2022-12-19T17:46:14.093Z,50.11
2022-12-19T17:47:14.012Z,50.92
2022-12-19T17:48:14.877Z,56.07
2022-12-19T17:49:14.009Z,54.62
2022-12-19T17:50:13.988Z,54.95
2022-12-19T17:51:14.008Z,53.01
2022-12-19T17:52:13.975Z,53.82
2022-12-19T17:53:14.016Z,54.62
2022-12-19T17:54:14.042Z,53.66
2022-12-19T17:55:14.390Z,53.82
2022-12-19T17:56:14.944Z,52.53
2022-12-19T17:57:13.947Z,53.33
2022-12-19T17:58:13.927Z,53.33
2022-12-19T17:59:13.935Z,52.21
2022-12-19T18:00:13.907Z,51.40
2022-12-19T18:01:13.968Z,53.01
2022-12-19T18:02:14.045Z,54.62
2022-12-19T18:03:14.002Z,54.46
2022-12-19T18:04:13.903Z,53.82
2022-12-19T18:05:13.887Z,54.46
2022-12-19T18:06:13.877Z,54.62
2022-12-19T18:07:13.863Z,53.98
2022-12-19T18:08:13.930Z,52.37
2022-12-19T18:09:13.855Z,50.92
2022-12-19T18:10:13.837Z,53.33
2022-12-19T18:11:13.831Z,50.27
2022-12-19T18:12:13.855Z,51.08
2022-12-19T18:13:13.832Z,52.85
2022-12-19T18:14:13.853Z,53.98
2022-12-19T18:15:13.810Z,51.56
2022-12-19T18:16:13.883Z,52.21
2022-12-19T18:17:13.858Z,51.88
2022-12-19T18:18:13.838Z,51.72
2022-12-19T18:19:13.892Z,52.37
2022-12-19T18:20:13.783Z,52.05
2022-12-19T18:21:13.780Z,52.37
2022-12-19T18:22:13.767Z,52.53
2022-12-19T18:23:13.777Z,52.37
2022-12-19T18:24:13.765Z,54.30
2022-12-19T18:25:13.744Z,52.69
2022-12-19T18:26:13.757Z,54.14
2022-12-19T18:27:13.734Z,51.88
2022-12-19T18:28:13.710Z,51.88
2022-12-19T18:29:13.723Z,52.53
2022-12-19T18:30:13.696Z,54.46
2022-12-19T18:31:13.796Z,52.37
2022-12-19T18:32:13.709Z,51.72
2022-12-19T18:33:13.678Z,53.17
2022-12-19T18:34:13.688Z,53.82
2022-12-19T18:35:13.705Z,53.50
2022-12-19T18:36:14.661Z,53.66
2022-12-19T18:37:13.691Z,53.98
2022-12-19T18:38:13.710Z,54.95
2022-12-19T18:39:13.653Z,53.98
2022-12-19T18:40:20.065Z,51.88
2022-12-19T18:41:15.649Z,51.72
2022-12-19T18:42:13.621Z,51.72
2022-12-19T18:43:13.646Z,51.40
2022-12-19T18:44:13.647Z,52.21
2022-12-19T18:45:13.636Z,53.50
2022-12-19T18:46:13.728Z,50.76
2022-12-19T18:47:13.606Z,52.69
2022-12-19T18:48:13.579Z,51.40
2022-12-19T18:49:13.673Z,51.72
2022-12-19T18:50:13.651Z,50.76
2022-12-19T18:51:13.591Z,52.69
2022-12-19T18:52:13.568Z,52.21
2022-12-19T18:53:13.566Z,54.30
2022-12-19T18:54:13.552Z,51.40
2022-12-19T18:55:13.560Z,50.43
2022-12-19T18:56:13.547Z,53.82
2022-12-19T18:57:13.581Z,52.85
2022-12-19T18:58:13.533Z,53.33
2022-12-19T18:59:13.538Z,53.50
2022-12-19T19:00:13.535Z,54.79
2022-12-19T19:01:13.536Z,52.53
2022-12-19T19:02:13.699Z,51.24
2022-12-19T19:03:13.835Z,52.37
2022-12-19T19:04:13.523Z,53.82
2022-12-19T19:05:13.501Z,51.08
2022-12-19T19:06:13.456Z,52.37
2022-12-19T19:07:13.468Z,50.60
2022-12-19T19:08:13.459Z,50.92
2022-12-19T19:09:13.457Z,51.40
2022-12-19T19:10:13.442Z,52.69
2022-12-19T19:11:13.456Z,49.95
2022-12-19T19:12:13.442Z,51.72
2022-12-19T19:13:13.445Z,50.92
2022-12-19T19:14:13.471Z,51.40
2022-12-19T19:15:13.386Z,52.69
2022-12-19T19:16:13.418Z,52.21
2022-12-19T19:17:13.435Z,51.08
2022-12-19T19:18:13.407Z,50.60
2022-12-19T19:19:13.407Z,49.95
2022-12-19T19:20:13.390Z,49.79
2022-12-19T19:21:13.375Z,50.76
2022-12-19T19:22:13.338Z,53.17
2022-12-19T19:23:13.330Z,54.14
2022-12-19T19:24:13.375Z,51.72
2022-12-19T19:25:13.337Z,51.72
2022-12-19T19:26:13.334Z,51.56
2022-12-19T19:27:13.339Z,49.95
2022-12-19T19:28:13.337Z,49.63
2022-12-19T19:29:13.414Z,52.37
2022-12-19T19:30:13.334Z,51.72
2022-12-19T19:31:13.343Z,49.63
2022-12-19T19:32:13.325Z,49.79
2022-12-19T19:33:13.345Z,53.82
2022-12-19T19:34:13.290Z,53.01
2022-12-19T19:35:13.282Z,53.66
2022-12-19T19:36:13.314Z,50.76
2022-12-19T19:37:13.265Z,51.40
2022-12-19T19:38:13.272Z,50.27
2022-12-19T19:39:13.251Z,49.79
2022-12-19T19:40:13.317Z,50.11
2022-12-19T19:41:13.279Z,50.11
2022-12-19T19:42:13.268Z,50.27
2022-12-19T19:43:13.269Z,51.56
2022-12-19T19:44:13.222Z,53.01
2022-12-19T19:45:13.302Z,52.37
2022-12-19T19:46:13.239Z,51.88
2022-12-19T19:47:13.221Z,51.08
2022-12-19T19:48:13.234Z,52.05
2022-12-19T19:49:13.198Z,49.47
2022-12-19T19:50:13.193Z,50.76
2022-12-19T19:51:13.694Z,49.79
2022-12-19T19:52:13.157Z,50.43
2022-12-19T19:53:13.196Z,50.76
2022-12-19T19:54:13.167Z,49.63
2022-12-19T19:55:13.536Z,51.40
2022-12-19T19:56:13.133Z,50.43
2022-12-19T19:57:13.275Z,52.69
2022-12-19T19:58:13.125Z,51.08
2022-12-19T19:59:13.138Z,52.05
2022-12-19T20:00:13.175Z,52.21
2022-12-19T20:01:13.226Z,52.53
2022-12-19T20:02:13.330Z,51.40
2022-12-19T20:03:20.489Z,52.37
2022-12-19T20:04:15.163Z,50.60
2022-12-19T20:05:13.046Z,48.18
2022-12-19T20:06:13.063Z,47.37
2022-12-19T20:07:13.044Z,49.79
2022-12-19T20:08:13.029Z,50.76
2022-12-19T20:09:13.017Z,49.15
2022-12-19T20:10:13.043Z,49.63
2022-12-19T20:11:13.011Z,51.72
2022-12-19T20:12:12.997Z,49.79
2022-12-19T20:13:13.010Z,48.50
2022-12-19T20:14:13.014Z,48.34
2022-12-19T20:15:12.991Z,50.60
2022-12-19T20:16:13.103Z,50.92
2022-12-19T20:17:12.989Z,50.76
2022-12-19T20:18:12.957Z,49.15
2022-12-19T20:19:12.952Z,50.11
2022-12-19T20:20:12.947Z,50.76
2022-12-19T20:21:13.924Z,51.72
2022-12-19T20:22:13.917Z,50.76
2022-12-19T20:23:12.924Z,53.66
2022-12-19T20:24:12.906Z,52.85
2022-12-19T20:25:12.938Z,52.21
2022-12-19T20:26:12.947Z,51.40
2022-12-19T20:27:12.905Z,49.79
2022-12-19T20:28:12.902Z,49.95
2022-12-19T20:29:12.874Z,50.27
2022-12-19T20:30:12.923Z,51.72
2022-12-19T20:31:12.916Z,49.95
2022-12-19T20:32:12.853Z,49.79
2022-12-19T20:33:12.886Z,50.76
2022-12-19T20:34:12.829Z,49.31
2022-12-19T20:35:14.858Z,51.24
2022-12-19T20:36:13.879Z,50.27
2022-12-19T20:37:12.811Z,51.72
2022-12-19T20:38:12.809Z,48.66
2022-12-19T20:39:12.875Z,48.82
2022-12-19T20:40:12.814Z,51.72
2022-12-19T20:41:12.787Z,50.76
2022-12-19T20:42:12.777Z,51.40
2022-12-19T20:43:12.780Z,50.11
2022-12-19T20:44:12.815Z,47.86
2022-12-19T20:45:12.812Z,49.63
2022-12-19T20:46:12.880Z,48.66
2022-12-19T20:47:12.753Z,50.11
2022-12-19T20:48:12.784Z,49.31
2022-12-19T20:49:12.737Z,49.31
2022-12-19T20:50:12.809Z,48.50
2022-12-19T20:51:12.760Z,47.86
2022-12-19T20:52:12.723Z,47.86
2022-12-19T20:53:12.709Z,48.82
2022-12-19T20:54:13.738Z,47.53
2022-12-19T20:55:12.726Z,48.18
2022-12-19T20:56:12.683Z,50.76
2022-12-19T20:57:12.792Z,49.15
2022-12-19T20:58:12.699Z,48.18
2022-12-19T20:59:12.682Z,48.02
2022-12-19T21:00:12.723Z,48.98
2022-12-19T21:01:12.780Z,47.21
2022-12-19T21:02:12.745Z,47.37
2022-12-19T21:03:29.761Z,49.15
2022-12-19T21:04:14.919Z,48.98
2022-12-19T21:05:12.696Z,48.50
2022-12-19T21:06:12.639Z,48.02
2022-12-19T21:07:12.697Z,50.27
2022-12-19T21:08:12.659Z,48.66
2022-12-19T21:09:12.607Z,48.02
2022-12-19T21:10:12.645Z,48.02
2022-12-19T21:11:13.625Z,49.95
2022-12-19T21:12:12.588Z,49.15
2022-12-19T21:13:12.615Z,51.88
2022-12-19T21:14:12.616Z,51.72
2022-12-19T21:15:12.614Z,51.24
2022-12-19T21:16:12.625Z,49.95
2022-12-19T21:17:12.573Z,48.66
2022-12-19T21:18:12.574Z,48.50
2022-12-19T21:19:12.663Z,50.27
2022-12-19T21:20:12.601Z,48.66
2022-12-19T21:21:12.560Z,50.27
2022-12-19T21:22:12.613Z,48.50
2022-12-19T21:23:12.565Z,48.66
2022-12-19T21:24:12.558Z,48.18
2022-12-19T21:25:12.567Z,47.86
2022-12-19T21:26:12.514Z,49.15
2022-12-19T21:27:12.552Z,49.47
2022-12-19T21:28:12.494Z,51.88
2022-12-19T21:29:12.580Z,49.79
2022-12-19T21:30:12.509Z,49.47
2022-12-19T21:31:12.501Z,48.02
2022-12-19T21:32:18.635Z,50.27
2022-12-19T21:33:14.490Z,48.82
2022-12-19T21:34:12.520Z,49.79
2022-12-19T21:35:12.485Z,47.86
2022-12-19T21:36:12.443Z,47.70
2022-12-19T21:37:12.437Z,49.31
2022-12-19T21:38:12.432Z,49.95
2022-12-19T21:39:12.447Z,47.86
2022-12-19T21:40:12.475Z,49.95
2022-12-19T21:41:12.457Z,47.05
2022-12-19T21:42:12.456Z,47.37
2022-12-19T21:43:12.487Z,50.43
2022-12-19T21:44:12.411Z,50.43
2022-12-19T21:45:12.341Z,49.47
2022-12-19T21:46:12.419Z,50.76
2022-12-19T21:47:12.351Z,49.79
2022-12-19T21:48:12.315Z,47.05
2022-12-19T21:49:12.343Z,46.89
2022-12-19T21:50:12.328Z,47.70
